sensor_id;sensor_type;location;lat;lon;timestamp;P1;durP1;ratioP1;P2;durP2;ratioP2
55067;SDS011;40965;52.368;9.712;2023-08-30T00:02:23;2.72;;;2.50;;
55067;SDS011;40965;52.368;9.712;2023-08-30T00:04:50;2.47;;;2.20;;
55067;SDS011;40965;52.368;9.712;2023-08-30T00:07:16;2.78;;;2.53;;
55067;SDS011;40965;52.368;9.712;2023-08-30T00:09:43;3.28;;;1.85;;
55067;SDS011;40965;52.368;9.712;2023-08-30T00:12:09;2.95;;;2.70;;
55067;SDS011;40965;52.368;9.712;2023-08-30T00:14:36;4.80;;;3.25;;
55067;SDS011;40965;52.368;9.712;2023-08-30T00:17:02;4.05;;;3.05;;
55067;SDS011;40965;52.368;9.712;2023-08-30T00:19:29;2.75;;;2.08;;
55067;SDS011;40965;52.368;9.712;2023-08-30T00:21:55;2.70;;;2.50;;
55067;SDS011;40965;52.368;9.712;2023-08-30T00:24:22;3.08;;;2.88;;
55067;SDS011;40965;52.368;9.712;2023-08-30T00:26:49;3.38;;;3.08;;
55067;SDS011;40965;52.368;9.712;2023-08-30T00:29:18;2.83;;;2.63;;
55067;SDS011;40965;52.368;9.712;2023-08-30T00:31:44;4.97;;;3.00;;
55067;SDS011;40965;52.368;9.712;2023-08-30T00:34:11;2.72;;;2.40;;
55067;SDS011;40965;52.368;9.712;2023-08-30T00:36:38;3.00;;;2.75;;
55067;SDS011;40965;52.368;9.712;2023-08-30T00:39:04;2.97;;;2.65;;
55067;SDS011;40965;52.368;9.712;2023-08-30T00:41:31;1.95;;;1.85;;
55067;SDS011;40965;52.368;9.712;2023-08-30T00:43:57;3.30;;;3.00;;
55067;SDS011;40965;52.368;9.712;2023-08-30T00:46:24;2.83;;;2.58;;
55067;SDS011;40965;52.368;9.712;2023-08-30T00:48:50;3.00;;;2.70;;
55067;SDS011;40965;52.368;9.712;2023-08-30T00:51:17;3.35;;;3.05;;
55067;SDS011;40965;52.368;9.712;2023-08-30T00:53:44;4.10;;;3.15;;
55067;SDS011;40965;52.368;9.712;2023-08-30T00:56:11;3.92;;;3.63;;
55067;SDS011;40965;52.368;9.712;2023-08-30T00:58:38;3.72;;;3.40;;
55067;SDS011;40965;52.368;9.712;2023-08-30T01:01:04;5.63;;;3.35;;
55067;SDS011;40965;52.368;9.712;2023-08-30T01:03:33;4.97;;;3.75;;
55067;SDS011;40965;52.368;9.712;2023-08-30T01:06:00;3.22;;;3.03;;
55067;SDS011;40965;52.368;9.712;2023-08-30T01:08:29;3.33;;;2.90;;
55067;SDS011;40965;52.368;9.712;2023-08-30T01:11:11;3.80;;;3.50;;
55067;SDS011;40965;52.368;9.712;2023-08-30T01:13:51;4.23;;;3.53;;
55067;SDS011;40965;52.368;9.712;2023-08-30T01:16:22;3.17;;;2.97;;
55067;SDS011;40965;52.368;9.712;2023-08-30T01:18:50;3.33;;;3.10;;
55067;SDS011;40965;52.368;9.712;2023-08-30T01:24:23;4.80;;;3.67;;
55067;SDS011;40965;52.368;9.712;2023-08-30T01:27:07;2.97;;;2.78;;
55067;SDS011;40965;52.368;9.712;2023-08-30T01:29:36;3.03;;;2.83;;
55067;SDS011;40965;52.368;9.712;2023-08-30T01:32:04;3.20;;;3.00;;
55067;SDS011;40965;52.368;9.712;2023-08-30T01:34:33;8.13;;;4.10;;
55067;SDS011;40965;52.368;9.712;2023-08-30T01:37:02;4.60;;;3.53;;
55067;SDS011;40965;52.368;9.712;2023-08-30T01:39:31;3.95;;;3.58;;
55067;SDS011;40965;52.368;9.712;2023-08-30T01:41:58;4.38;;;3.92;;
55067;SDS011;40965;52.368;9.712;2023-08-30T01:44:28;5.40;;;4.07;;
55067;SDS011;40965;52.368;9.712;2023-08-30T01:46:56;5.00;;;4.00;;
55067;SDS011;40965;52.368;9.712;2023-08-30T01:49:24;3.72;;;3.40;;
55067;SDS011;40965;52.368;9.712;2023-08-30T01:51:51;5.00;;;3.38;;
55067;SDS011;40965;52.368;9.712;2023-08-30T01:54:19;3.78;;;3.47;;
55067;SDS011;40965;52.368;9.712;2023-08-30T01:56:47;3.58;;;2.88;;
55067;SDS011;40965;52.368;9.712;2023-08-30T01:59:14;3.92;;;3.58;;
55067;SDS011;40965;52.368;9.712;2023-08-30T02:01:40;6.90;;;3.90;;
55067;SDS011;40965;52.368;9.712;2023-08-30T02:04:07;4.88;;;3.50;;
55067;SDS011;40965;52.368;9.712;2023-08-30T02:06:35;2.72;;;2.53;;
55067;SDS011;40965;52.368;9.712;2023-08-30T02:09:14;3.83;;;3.13;;
55067;SDS011;40965;52.368;9.712;2023-08-30T02:11:47;4.00;;;3.50;;
55067;SDS011;40965;52.368;9.712;2023-08-30T02:14:17;4.28;;;3.17;;
55067;SDS011;40965;52.368;9.712;2023-08-30T02:16:47;3.95;;;3.65;;
55067;SDS011;40965;52.368;9.712;2023-08-30T02:19:15;2.60;;;2.50;;
55067;SDS011;40965;52.368;9.712;2023-08-30T02:21:45;3.75;;;2.83;;
55067;SDS011;40965;52.368;9.712;2023-08-30T02:24:12;7.65;;;3.67;;
55067;SDS011;40965;52.368;9.712;2023-08-30T02:26:39;3.65;;;3.28;;
55067;SDS011;40965;52.368;9.712;2023-08-30T02:29:05;3.28;;;3.05;;
55067;SDS011;40965;52.368;9.712;2023-08-30T02:31:33;3.25;;;3.05;;
55067;SDS011;40965;52.368;9.712;2023-08-30T02:33:59;4.00;;;2.80;;
55067;SDS011;40965;52.368;9.712;2023-08-30T02:36:27;3.38;;;3.17;;
55067;SDS011;40965;52.368;9.712;2023-08-30T02:38:53;5.35;;;3.15;;
55067;SDS011;40965;52.368;9.712;2023-08-30T02:41:20;2.40;;;2.28;;
55067;SDS011;40965;52.368;9.712;2023-08-30T02:43:46;3.58;;;3.30;;
55067;SDS011;40965;52.368;9.712;2023-08-30T02:46:13;3.67;;;3.03;;
55067;SDS011;40965;52.368;9.712;2023-08-30T02:48:39;3.38;;;3.03;;
55067;SDS011;40965;52.368;9.712;2023-08-30T02:51:06;3.20;;;3.00;;
55067;SDS011;40965;52.368;9.712;2023-08-30T02:53:32;3.35;;;3.05;;
55067;SDS011;40965;52.368;9.712;2023-08-30T02:55:59;5.32;;;3.33;;
55067;SDS011;40965;52.368;9.712;2023-08-30T02:58:25;3.85;;;3.05;;
55067;SDS011;40965;52.368;9.712;2023-08-30T03:00:52;5.05;;;3.25;;
55067;SDS011;40965;52.368;9.712;2023-08-30T03:03:19;3.78;;;3.38;;
55067;SDS011;40965;52.368;9.712;2023-08-30T03:05:45;3.28;;;3.08;;
55067;SDS011;40965;52.368;9.712;2023-08-30T03:08:12;4.18;;;3.20;;
55067;SDS011;40965;52.368;9.712;2023-08-30T03:10:38;3.13;;;2.92;;
55067;SDS011;40965;52.368;9.712;2023-08-30T03:13:05;3.97;;;3.78;;
55067;SDS011;40965;52.368;9.712;2023-08-30T03:15:31;3.67;;;3.38;;
55067;SDS011;40965;52.368;9.712;2023-08-30T03:17:59;3.17;;;2.80;;
55067;SDS011;40965;52.368;9.712;2023-08-30T03:20:26;3.47;;;3.28;;
55067;SDS011;40965;52.368;9.712;2023-08-30T03:22:55;6.47;;;2.60;;
55067;SDS011;40965;52.368;9.712;2023-08-30T03:25:23;3.50;;;2.97;;
55067;SDS011;40965;52.368;9.712;2023-08-30T03:27:49;4.30;;;3.95;;
55067;SDS011;40965;52.368;9.712;2023-08-30T03:30:16;3.72;;;3.45;;
55067;SDS011;40965;52.368;9.712;2023-08-30T03:32:42;3.28;;;3.08;;
55067;SDS011;40965;52.368;9.712;2023-08-30T03:35:09;3.80;;;3.40;;
55067;SDS011;40965;52.368;9.712;2023-08-30T03:37:36;4.47;;;3.22;;
55067;SDS011;40965;52.368;9.712;2023-08-30T03:40:02;4.93;;;4.53;;
55067;SDS011;40965;52.368;9.712;2023-08-30T03:42:29;3.58;;;3.03;;
55067;SDS011;40965;52.368;9.712;2023-08-30T03:44:56;3.33;;;2.72;;
55067;SDS011;40965;52.368;9.712;2023-08-30T03:47:23;5.22;;;3.83;;
55067;SDS011;40965;52.368;9.712;2023-08-30T03:49:49;5.15;;;3.90;;
55067;SDS011;40965;52.368;9.712;2023-08-30T03:52:16;4.32;;;3.50;;
55067;SDS011;40965;52.368;9.712;2023-08-30T03:54:42;4.50;;;4.20;;
55067;SDS011;40965;52.368;9.712;2023-08-30T03:57:09;4.90;;;4.00;;
55067;SDS011;40965;52.368;9.712;2023-08-30T03:59:37;5.57;;;3.40;;
55067;SDS011;40965;52.368;9.712;2023-08-30T04:02:03;5.07;;;3.70;;
55067;SDS011;40965;52.368;9.712;2023-08-30T04:04:30;5.65;;;4.45;;
55067;SDS011;40965;52.368;9.712;2023-08-30T04:06:56;4.10;;;3.75;;
55067;SDS011;40965;52.368;9.712;2023-08-30T04:09:23;5.50;;;4.28;;
55067;SDS011;40965;52.368;9.712;2023-08-30T04:11:50;3.88;;;3.58;;
55067;SDS011;40965;52.368;9.712;2023-08-30T04:14:16;3.90;;;3.60;;
55067;SDS011;40965;52.368;9.712;2023-08-30T04:16:43;5.13;;;4.10;;
55067;SDS011;40965;52.368;9.712;2023-08-30T04:19:10;3.58;;;3.38;;
55067;SDS011;40965;52.368;9.712;2023-08-30T04:21:36;6.05;;;3.90;;
55067;SDS011;40965;52.368;9.712;2023-08-30T04:24:04;6.80;;;3.78;;
55067;SDS011;40965;52.368;9.712;2023-08-30T04:26:31;4.55;;;4.25;;
55067;SDS011;40965;52.368;9.712;2023-08-30T04:28:57;12.57;;;4.32;;
55067;SDS011;40965;52.368;9.712;2023-08-30T04:31:24;3.28;;;3.03;;
55067;SDS011;40965;52.368;9.712;2023-08-30T04:33:51;3.50;;;3.20;;
55067;SDS011;40965;52.368;9.712;2023-08-30T04:36:23;4.75;;;3.75;;
55067;SDS011;40965;52.368;9.712;2023-08-30T04:38:49;3.40;;;3.13;;
55067;SDS011;40965;52.368;9.712;2023-08-30T04:41:16;4.70;;;4.35;;
55067;SDS011;40965;52.368;9.712;2023-08-30T04:43:42;10.85;;;4.43;;
55067;SDS011;40965;52.368;9.712;2023-08-30T04:46:09;6.15;;;5.35;;
55067;SDS011;40965;52.368;9.712;2023-08-30T04:48:35;4.95;;;4.32;;
55067;SDS011;40965;52.368;9.712;2023-08-30T04:51:03;4.72;;;4.32;;
55067;SDS011;40965;52.368;9.712;2023-08-30T04:53:30;5.07;;;4.25;;
55067;SDS011;40965;52.368;9.712;2023-08-30T04:55:57;7.20;;;5.13;;
55067;SDS011;40965;52.368;9.712;2023-08-30T04:58:24;5.20;;;4.53;;
55067;SDS011;40965;52.368;9.712;2023-08-30T05:00:50;6.43;;;4.60;;
55067;SDS011;40965;52.368;9.712;2023-08-30T05:03:17;7.32;;;4.28;;
55067;SDS011;40965;52.368;9.712;2023-08-30T05:05:47;5.80;;;4.47;;
55067;SDS011;40965;52.368;9.712;2023-08-30T05:08:13;9.23;;;5.03;;
55067;SDS011;40965;52.368;9.712;2023-08-30T05:10:40;5.88;;;4.70;;
55067;SDS011;40965;52.368;9.712;2023-08-30T05:13:08;4.40;;;4.10;;
55067;SDS011;40965;52.368;9.712;2023-08-30T05:15:34;11.52;;;5.00;;
55067;SDS011;40965;52.368;9.712;2023-08-30T05:18:01;4.53;;;3.70;;
55067;SDS011;40965;52.368;9.712;2023-08-30T05:20:27;7.32;;;4.60;;
55067;SDS011;40965;52.368;9.712;2023-08-30T05:22:54;4.32;;;3.92;;
55067;SDS011;40965;52.368;9.712;2023-08-30T05:25:21;4.90;;;3.75;;
55067;SDS011;40965;52.368;9.712;2023-08-30T05:27:48;11.75;;;4.75;;
55067;SDS011;40965;52.368;9.712;2023-08-30T05:30:14;5.78;;;5.28;;
55067;SDS011;40965;52.368;9.712;2023-08-30T05:32:41;5.13;;;3.75;;
55067;SDS011;40965;52.368;9.712;2023-08-30T05:35:12;5.68;;;4.15;;
55067;SDS011;40965;52.368;9.712;2023-08-30T05:37:38;5.22;;;4.50;;
55067;SDS011;40965;52.368;9.712;2023-08-30T05:40:05;4.70;;;4.30;;
55067;SDS011;40965;52.368;9.712;2023-08-30T05:42:33;4.72;;;4.15;;
55067;SDS011;40965;52.368;9.712;2023-08-30T05:44:59;6.22;;;3.90;;
55067;SDS011;40965;52.368;9.712;2023-08-30T05:47:26;8.10;;;4.53;;
55067;SDS011;40965;52.368;9.712;2023-08-30T05:49:52;4.38;;;4.00;;
55067;SDS011;40965;52.368;9.712;2023-08-30T05:52:19;4.15;;;3.85;;
55067;SDS011;40965;52.368;9.712;2023-08-30T05:54:45;4.25;;;3.90;;
55067;SDS011;40965;52.368;9.712;2023-08-30T05:57:12;4.38;;;3.95;;
55067;SDS011;40965;52.368;9.712;2023-08-30T05:59:38;3.88;;;3.58;;
55067;SDS011;40965;52.368;9.712;2023-08-30T06:02:05;4.32;;;4.03;;
55067;SDS011;40965;52.368;9.712;2023-08-30T06:04:32;4.93;;;4.35;;
55067;SDS011;40965;52.368;9.712;2023-08-30T06:06:58;4.72;;;3.92;;
55067;SDS011;40965;52.368;9.712;2023-08-30T06:09:25;3.72;;;3.42;;
55067;SDS011;40965;52.368;9.712;2023-08-30T06:11:51;4.13;;;3.70;;
55067;SDS011;40965;52.368;9.712;2023-08-30T06:14:18;4.97;;;3.85;;
55067;SDS011;40965;52.368;9.712;2023-08-30T06:16:44;5.07;;;4.25;;
55067;SDS011;40965;52.368;9.712;2023-08-30T06:19:11;4.05;;;3.65;;
55067;SDS011;40965;52.368;9.712;2023-08-30T06:21:37;4.00;;;3.70;;
55067;SDS011;40965;52.368;9.712;2023-08-30T06:24:04;5.30;;;4.72;;
55067;SDS011;40965;52.368;9.712;2023-08-30T06:26:31;4.53;;;4.13;;
55067;SDS011;40965;52.368;9.712;2023-08-30T06:28:57;4.63;;;4.07;;
55067;SDS011;40965;52.368;9.712;2023-08-30T06:31:24;5.18;;;4.57;;
55067;SDS011;40965;52.368;9.712;2023-08-30T06:33:52;4.47;;;3.95;;
55067;SDS011;40965;52.368;9.712;2023-08-30T06:36:19;4.82;;;4.32;;
55067;SDS011;40965;52.368;9.712;2023-08-30T06:38:47;5.45;;;4.38;;
55067;SDS011;40965;52.368;9.712;2023-08-30T06:41:14;4.53;;;4.22;;
55067;SDS011;40965;52.368;9.712;2023-08-30T06:43:41;6.22;;;4.47;;
55067;SDS011;40965;52.368;9.712;2023-08-30T06:46:07;3.67;;;3.35;;
55067;SDS011;40965;52.368;9.712;2023-08-30T06:48:34;4.18;;;3.72;;
55067;SDS011;40965;52.368;9.712;2023-08-30T06:51:00;7.97;;;3.80;;
55067;SDS011;40965;52.368;9.712;2023-08-30T06:53:27;5.85;;;3.85;;
55067;SDS011;40965;52.368;9.712;2023-08-30T06:56:00;9.45;;;4.75;;
55067;SDS011;40965;52.368;9.712;2023-08-30T06:58:27;7.55;;;3.70;;
55067;SDS011;40965;52.368;9.712;2023-08-30T07:00:53;5.95;;;4.47;;
55067;SDS011;40965;52.368;9.712;2023-08-30T07:03:20;5.43;;;3.72;;
55067;SDS011;40965;52.368;9.712;2023-08-30T07:05:46;4.40;;;3.90;;
55067;SDS011;40965;52.368;9.712;2023-08-30T07:08:14;6.80;;;3.95;;
55067;SDS011;40965;52.368;9.712;2023-08-30T07:10:41;5.43;;;3.83;;
55067;SDS011;40965;52.368;9.712;2023-08-30T07:13:08;4.43;;;4.03;;
55067;SDS011;40965;52.368;9.712;2023-08-30T07:15:38;7.30;;;4.80;;
55067;SDS011;40965;52.368;9.712;2023-08-30T07:18:06;6.82;;;4.30;;
55067;SDS011;40965;52.368;9.712;2023-08-30T07:20:34;3.08;;;2.88;;
55067;SDS011;40965;52.368;9.712;2023-08-30T07:23:02;8.85;;;4.32;;
55067;SDS011;40965;52.368;9.712;2023-08-30T07:25:30;8.80;;;5.38;;
55067;SDS011;40965;52.368;9.712;2023-08-30T07:27:57;5.10;;;4.03;;
55067;SDS011;40965;52.368;9.712;2023-08-30T07:30:26;4.93;;;4.53;;
55067;SDS011;40965;52.368;9.712;2023-08-30T07:32:53;6.93;;;4.60;;
55067;SDS011;40965;52.368;9.712;2023-08-30T07:35:20;5.60;;;5.10;;
55067;SDS011;40965;52.368;9.712;2023-08-30T07:37:47;7.72;;;6.30;;
55067;SDS011;40965;52.368;9.712;2023-08-30T07:40:13;9.05;;;5.68;;
55067;SDS011;40965;52.368;9.712;2023-08-30T07:42:40;6.95;;;5.57;;
55067;SDS011;40965;52.368;9.712;2023-08-30T07:45:07;8.02;;;6.75;;
55067;SDS011;40965;52.368;9.712;2023-08-30T07:47:34;7.63;;;6.93;;
55067;SDS011;40965;52.368;9.712;2023-08-30T07:50:01;8.27;;;7.43;;
55067;SDS011;40965;52.368;9.712;2023-08-30T07:52:27;8.50;;;7.60;;
55067;SDS011;40965;52.368;9.712;2023-08-30T07:54:54;12.27;;;6.57;;
55067;SDS011;40965;52.368;9.712;2023-08-30T07:57:21;8.80;;;7.13;;
55067;SDS011;40965;52.368;9.712;2023-08-30T07:59:47;9.10;;;7.53;;
55067;SDS011;40965;52.368;9.712;2023-08-30T08:02:13;9.45;;;7.90;;
55067;SDS011;40965;52.368;9.712;2023-08-30T08:04:40;8.05;;;6.75;;
55067;SDS011;40965;52.368;9.712;2023-08-30T08:07:08;8.15;;;7.35;;
55067;SDS011;40965;52.368;9.712;2023-08-30T08:09:34;13.48;;;7.30;;
55067;SDS011;40965;52.368;9.712;2023-08-30T08:12:03;8.60;;;6.13;;
55067;SDS011;40965;52.368;9.712;2023-08-30T08:14:30;7.38;;;6.47;;
55067;SDS011;40965;52.368;9.712;2023-08-30T08:16:56;6.78;;;6.07;;
55067;SDS011;40965;52.368;9.712;2023-08-30T08:19:23;5.80;;;5.20;;
55067;SDS011;40965;52.368;9.712;2023-08-30T08:21:49;7.88;;;6.32;;
55067;SDS011;40965;52.368;9.712;2023-08-30T08:24:18;8.98;;;6.05;;
55067;SDS011;40965;52.368;9.712;2023-08-30T08:26:45;5.68;;;4.65;;
55067;SDS011;40965;52.368;9.712;2023-08-30T08:29:12;7.40;;;5.97;;
55067;SDS011;40965;52.368;9.712;2023-08-30T08:31:39;5.50;;;5.00;;
55067;SDS011;40965;52.368;9.712;2023-08-30T08:34:09;5.45;;;4.88;;
55067;SDS011;40965;52.368;9.712;2023-08-30T08:36:37;8.30;;;7.28;;
55067;SDS011;40965;52.368;9.712;2023-08-30T08:39:05;8.85;;;6.28;;
55067;SDS011;40965;52.368;9.712;2023-08-30T08:41:42;7.93;;;6.30;;
55067;SDS011;40965;52.368;9.712;2023-08-30T08:44:10;7.32;;;6.72;;
55067;SDS011;40965;52.368;9.712;2023-08-30T08:46:39;10.05;;;8.80;;
55067;SDS011;40965;52.368;9.712;2023-08-30T08:49:16;11.93;;;7.82;;
55067;SDS011;40965;52.368;9.712;2023-08-30T08:51:44;9.25;;;6.45;;
55067;SDS011;40965;52.368;9.712;2023-08-30T08:54:11;8.40;;;7.60;;
55067;SDS011;40965;52.368;9.712;2023-08-30T08:56:42;11.00;;;8.52;;
55067;SDS011;40965;52.368;9.712;2023-08-30T08:59:09;8.77;;;7.82;;
55067;SDS011;40965;52.368;9.712;2023-08-30T09:01:36;9.18;;;7.65;;
55067;SDS011;40965;52.368;9.712;2023-08-30T09:04:05;8.77;;;7.55;;
55067;SDS011;40965;52.368;9.712;2023-08-30T09:06:34;7.10;;;6.47;;
55067;SDS011;40965;52.368;9.712;2023-08-30T09:09:02;8.68;;;6.93;;
55067;SDS011;40965;52.368;9.712;2023-08-30T09:11:30;11.15;;;7.80;;
55067;SDS011;40965;52.368;9.712;2023-08-30T09:13:57;8.52;;;7.72;;
55067;SDS011;40965;52.368;9.712;2023-08-30T09:16:24;8.25;;;7.45;;
55067;SDS011;40965;52.368;9.712;2023-08-30T09:19:00;9.98;;;7.43;;
55067;SDS011;40965;52.368;9.712;2023-08-30T09:21:29;10.98;;;9.10;;
55067;SDS011;40965;52.368;9.712;2023-08-30T09:24:00;11.77;;;9.40;;
55067;SDS011;40965;52.368;9.712;2023-08-30T09:26:32;13.02;;;8.50;;
55067;SDS011;40965;52.368;9.712;2023-08-30T09:29:02;10.07;;;7.53;;
55067;SDS011;40965;52.368;9.712;2023-08-30T09:31:39;8.70;;;7.88;;
55067;SDS011;40965;52.368;9.712;2023-08-30T09:34:06;13.75;;;7.72;;
55067;SDS011;40965;52.368;9.712;2023-08-30T09:36:40;11.27;;;8.93;;
55067;SDS011;40965;52.368;9.712;2023-08-30T09:39:08;8.15;;;7.35;;
55067;SDS011;40965;52.368;9.712;2023-08-30T09:41:40;10.85;;;8.55;;
55067;SDS011;40965;52.368;9.712;2023-08-30T09:44:11;9.02;;;8.10;;
55067;SDS011;40965;52.368;9.712;2023-08-30T09:46:45;10.98;;;9.57;;
55067;SDS011;40965;52.368;9.712;2023-08-30T09:49:18;9.95;;;8.95;;
55067;SDS011;40965;52.368;9.712;2023-08-30T09:51:46;11.43;;;10.18;;
55067;SDS011;40965;52.368;9.712;2023-08-30T09:54:25;11.15;;;9.68;;
55067;SDS011;40965;52.368;9.712;2023-08-30T09:56:53;11.73;;;10.50;;
55067;SDS011;40965;52.368;9.712;2023-08-30T09:59:22;12.50;;;9.88;;
55067;SDS011;40965;52.368;9.712;2023-08-30T10:01:49;10.30;;;9.15;;
55067;SDS011;40965;52.368;9.712;2023-08-30T10:04:17;11.98;;;9.10;;
55067;SDS011;40965;52.368;9.712;2023-08-30T10:06:46;11.43;;;9.18;;
55067;SDS011;40965;52.368;9.712;2023-08-30T10:09:14;12.63;;;10.43;;
55067;SDS011;40965;52.368;9.712;2023-08-30T10:11:41;10.98;;;9.98;;
55067;SDS011;40965;52.368;9.712;2023-08-30T10:14:12;12.00;;;10.30;;
55067;SDS011;40965;52.368;9.712;2023-08-30T10:16:43;11.32;;;9.82;;
55067;SDS011;40965;52.368;9.712;2023-08-30T10:19:23;12.50;;;10.25;;
55067;SDS011;40965;52.368;9.712;2023-08-30T10:22:02;11.68;;;9.75;;
55067;SDS011;40965;52.368;9.712;2023-08-30T10:24:41;10.05;;;9.05;;
55067;SDS011;40965;52.368;9.712;2023-08-30T10:27:11;9.57;;;8.70;;
55067;SDS011;40965;52.368;9.712;2023-08-30T10:29:40;10.07;;;8.75;;
55067;SDS011;40965;52.368;9.712;2023-08-30T10:32:09;11.60;;;10.27;;
55067;SDS011;40965;52.368;9.712;2023-08-30T10:34:36;11.00;;;9.35;;
55067;SDS011;40965;52.368;9.712;2023-08-30T10:37:03;11.57;;;9.55;;
55067;SDS011;40965;52.368;9.712;2023-08-30T10:39:35;12.40;;;10.18;;
55067;SDS011;40965;52.368;9.712;2023-08-30T10:42:11;12.70;;;11.40;;
55067;SDS011;40965;52.368;9.712;2023-08-30T10:44:51;11.27;;;9.77;;
55067;SDS011;40965;52.368;9.712;2023-08-30T10:47:31;11.75;;;7.95;;
55067;SDS011;40965;52.368;9.712;2023-08-30T10:50:27;10.20;;;9.10;;
55067;SDS011;40965;52.368;9.712;2023-08-30T10:52:59;10.60;;;9.35;;
55067;SDS011;40965;52.368;9.712;2023-08-30T10:55:26;8.48;;;7.68;;
55067;SDS011;40965;52.368;9.712;2023-08-30T10:58:02;19.55;;;9.88;;
55067;SDS011;40965;52.368;9.712;2023-08-30T11:00:30;9.75;;;8.82;;
55067;SDS011;40965;52.368;9.712;2023-08-30T11:02:58;13.68;;;9.57;;
55067;SDS011;40965;52.368;9.712;2023-08-30T11:05:25;11.63;;;9.20;;
55067;SDS011;40965;52.368;9.712;2023-08-30T11:07:53;11.27;;;8.77;;
55067;SDS011;40965;52.368;9.712;2023-08-30T11:10:20;10.48;;;7.93;;
55067;SDS011;40965;52.368;9.712;2023-08-30T11:12:50;9.95;;;8.88;;
55067;SDS011;40965;52.368;9.712;2023-08-30T11:15:17;8.35;;;7.60;;
55067;SDS011;40965;52.368;9.712;2023-08-30T11:17:44;10.88;;;7.85;;
55067;SDS011;40965;52.368;9.712;2023-08-30T11:20:12;8.40;;;7.55;;
55067;SDS011;40965;52.368;9.712;2023-08-30T11:22:42;7.63;;;6.93;;
55067;SDS011;40965;52.368;9.712;2023-08-30T11:25:11;8.35;;;6.43;;
55067;SDS011;40965;52.368;9.712;2023-08-30T11:27:39;9.32;;;7.45;;
55067;SDS011;40965;52.368;9.712;2023-08-30T11:30:07;9.00;;;6.75;;
55067;SDS011;40965;52.368;9.712;2023-08-30T11:32:36;10.18;;;6.28;;
55067;SDS011;40965;52.368;9.712;2023-08-30T11:35:04;7.70;;;6.22;;
55067;SDS011;40965;52.368;9.712;2023-08-30T11:37:32;5.60;;;5.10;;
55067;SDS011;40965;52.368;9.712;2023-08-30T11:40:00;5.90;;;5.22;;
55067;SDS011;40965;52.368;9.712;2023-08-30T11:42:28;7.00;;;5.35;;
55067;SDS011;40965;52.368;9.712;2023-08-30T11:44:57;6.85;;;6.10;;
55067;SDS011;40965;52.368;9.712;2023-08-30T11:47:25;6.13;;;5.45;;
55067;SDS011;40965;52.368;9.712;2023-08-30T11:49:52;5.43;;;4.93;;
55067;SDS011;40965;52.368;9.712;2023-08-30T11:52:21;11.25;;;4.50;;
55067;SDS011;40965;52.368;9.712;2023-08-30T11:54:49;4.53;;;4.13;;
55067;SDS011;40965;52.368;9.712;2023-08-30T11:57:16;6.18;;;3.80;;
55067;SDS011;40965;52.368;9.712;2023-08-30T11:59:43;3.40;;;3.10;;
55067;SDS011;40965;52.368;9.712;2023-08-30T12:02:11;4.72;;;3.97;;
55067;SDS011;40965;52.368;9.712;2023-08-30T12:04:39;5.22;;;4.60;;
55067;SDS011;40965;52.368;9.712;2023-08-30T12:07:07;4.95;;;4.43;;
55067;SDS011;40965;52.368;9.712;2023-08-30T12:09:35;3.88;;;3.47;;
55067;SDS011;40965;52.368;9.712;2023-08-30T12:12:09;4.25;;;3.83;;
55067;SDS011;40965;52.368;9.712;2023-08-30T12:14:37;3.63;;;3.33;;
55067;SDS011;40965;52.368;9.712;2023-08-30T12:17:04;3.90;;;3.53;;
55067;SDS011;40965;52.368;9.712;2023-08-30T12:19:34;3.75;;;3.42;;
55067;SDS011;40965;52.368;9.712;2023-08-30T12:22:04;4.80;;;3.42;;
55067;SDS011;40965;52.368;9.712;2023-08-30T12:24:45;3.53;;;3.30;;
55067;SDS011;40965;52.368;9.712;2023-08-30T12:27:13;3.63;;;2.65;;
55067;SDS011;40965;52.368;9.712;2023-08-30T12:29:40;4.97;;;2.60;;
55067;SDS011;40965;52.368;9.712;2023-08-30T12:32:08;3.08;;;2.78;;
55067;SDS011;40965;52.368;9.712;2023-08-30T12:34:35;2.92;;;2.72;;
55067;SDS011;40965;52.368;9.712;2023-08-30T12:37:02;3.10;;;2.65;;
55067;SDS011;40965;52.368;9.712;2023-08-30T12:39:29;2.95;;;2.75;;
55067;SDS011;40965;52.368;9.712;2023-08-30T12:41:56;3.22;;;2.92;;
55067;SDS011;40965;52.368;9.712;2023-08-30T12:44:23;3.53;;;2.67;;
55067;SDS011;40965;52.368;9.712;2023-08-30T12:46:49;2.53;;;2.38;;
55067;SDS011;40965;52.368;9.712;2023-08-30T12:49:16;4.97;;;4.57;;
55067;SDS011;40965;52.368;9.712;2023-08-30T12:51:42;3.45;;;2.70;;
55067;SDS011;40965;52.368;9.712;2023-08-30T12:54:09;4.78;;;3.50;;
55067;SDS011;40965;52.368;9.712;2023-08-30T12:56:35;3.63;;;3.33;;
55067;SDS011;40965;52.368;9.712;2023-08-30T12:59:02;4.00;;;3.42;;
55067;SDS011;40965;52.368;9.712;2023-08-30T13:01:29;4.97;;;3.17;;
55067;SDS011;40965;52.368;9.712;2023-08-30T13:03:55;5.03;;;3.25;;
55067;SDS011;40965;52.368;9.712;2023-08-30T13:06:22;4.57;;;3.30;;
55067;SDS011;40965;52.368;9.712;2023-08-30T13:08:48;5.15;;;3.40;;
55067;SDS011;40965;52.368;9.712;2023-08-30T13:11:15;5.72;;;3.47;;
55067;SDS011;40965;52.368;9.712;2023-08-30T13:13:41;4.13;;;3.65;;
55067;SDS011;40965;52.368;9.712;2023-08-30T13:16:08;3.50;;;3.20;;
55067;SDS011;40965;52.368;9.712;2023-08-30T13:18:34;5.80;;;4.20;;
55067;SDS011;40965;52.368;9.712;2023-08-30T13:21:01;4.40;;;3.75;;
55067;SDS011;40965;52.368;9.712;2023-08-30T13:23:29;5.85;;;3.30;;
55067;SDS011;40965;52.368;9.712;2023-08-30T13:25:55;4.55;;;3.53;;
55067;SDS011;40965;52.368;9.712;2023-08-30T13:28:22;3.97;;;3.58;;
55067;SDS011;40965;52.368;9.712;2023-08-30T13:30:48;4.28;;;3.72;;
55067;SDS011;40965;52.368;9.712;2023-08-30T13:33:16;4.00;;;3.40;;
55067;SDS011;40965;52.368;9.712;2023-08-30T13:35:42;5.43;;;3.60;;
55067;SDS011;40965;52.368;9.712;2023-08-30T13:38:09;4.10;;;3.75;;
55067;SDS011;40965;52.368;9.712;2023-08-30T13:40:35;5.03;;;3.67;;
55067;SDS011;40965;52.368;9.712;2023-08-30T13:43:02;4.32;;;4.00;;
55067;SDS011;40965;52.368;9.712;2023-08-30T13:45:29;7.72;;;3.25;;
55067;SDS011;40965;52.368;9.712;2023-08-30T13:47:55;5.05;;;3.65;;
55067;SDS011;40965;52.368;9.712;2023-08-30T13:50:22;4.63;;;3.38;;
55067;SDS011;40965;52.368;9.712;2023-08-30T13:52:48;4.68;;;4.10;;
55067;SDS011;40965;52.368;9.712;2023-08-30T13:55:15;5.85;;;3.90;;
55067;SDS011;40965;52.368;9.712;2023-08-30T13:57:43;4.25;;;3.65;;
55067;SDS011;40965;52.368;9.712;2023-08-30T14:00:10;5.00;;;4.22;;
55067;SDS011;40965;52.368;9.712;2023-08-30T14:02:37;4.75;;;3.35;;
55067;SDS011;40965;52.368;9.712;2023-08-30T14:05:05;4.35;;;4.00;;
55067;SDS011;40965;52.368;9.712;2023-08-30T14:07:32;4.72;;;3.88;;
55067;SDS011;40965;52.368;9.712;2023-08-30T14:09:58;3.45;;;3.15;;
55067;SDS011;40965;52.368;9.712;2023-08-30T14:12:25;4.43;;;3.95;;
55067;SDS011;40965;52.368;9.712;2023-08-30T14:14:52;4.28;;;3.88;;
55067;SDS011;40965;52.368;9.712;2023-08-30T14:17:18;4.80;;;3.50;;
55067;SDS011;40965;52.368;9.712;2023-08-30T14:19:45;5.30;;;3.92;;
55067;SDS011;40965;52.368;9.712;2023-08-30T14:22:11;5.47;;;3.75;;
55067;SDS011;40965;52.368;9.712;2023-08-30T14:24:38;4.15;;;3.60;;
55067;SDS011;40965;52.368;9.712;2023-08-30T14:27:04;4.50;;;4.10;;
55067;SDS011;40965;52.368;9.712;2023-08-30T14:29:32;6.00;;;4.85;;
55067;SDS011;40965;52.368;9.712;2023-08-30T14:31:58;7.72;;;3.70;;
55067;SDS011;40965;52.368;9.712;2023-08-30T14:34:25;6.95;;;4.40;;
55067;SDS011;40965;52.368;9.712;2023-08-30T14:36:53;4.55;;;4.22;;
55067;SDS011;40965;52.368;9.712;2023-08-30T14:39:19;3.90;;;3.58;;
55067;SDS011;40965;52.368;9.712;2023-08-30T14:41:46;4.50;;;3.95;;
55067;SDS011;40965;52.368;9.712;2023-08-30T14:44:13;5.25;;;3.95;;
55067;SDS011;40965;52.368;9.712;2023-08-30T14:46:39;5.88;;;4.60;;
55067;SDS011;40965;52.368;9.712;2023-08-30T14:49:06;6.18;;;5.40;;
55067;SDS011;40965;52.368;9.712;2023-08-30T14:51:33;7.70;;;6.50;;
55067;SDS011;40965;52.368;9.712;2023-08-30T14:53:59;7.93;;;6.57;;